Flugplatz Hamburg-Finkenwerder

Bericht für EDHI

vom 18.09. um 21:50 UTC

variable Windrichtung mit 2 kt

Sichtweite 10 km oder mehr

keine Wolken

Temperatur 12.0°C

Taupunkt 7.0°C

Luftfeuchtigkeit 71%

Luftdruck 1026 hPa

EDHI 182150Z AUTO VRB02KT 9999 // NCD 12/07 Q1026
Keine Prognose (TAF) verfügbar.
Impressum